createdAt,value
2023-03-04T00:00:48.251Z,7.95
2023-03-04T00:03:15.713Z,7.57
2023-03-04T00:05:42.380Z,7.80
2023-03-04T00:08:09.133Z,7.72
2023-03-04T00:10:35.781Z,7.63
2023-03-04T00:13:02.405Z,8.02
2023-03-04T00:15:29.143Z,8.32
2023-03-04T00:17:56.220Z,7.63
2023-03-04T00:20:22.813Z,7.82
2023-03-04T00:22:49.422Z,7.22
2023-03-04T00:25:16.178Z,6.88
2023-03-04T00:27:42.681Z,6.75
2023-03-04T00:30:09.995Z,7.97
2023-03-04T00:32:36.675Z,8.23
2023-03-04T00:35:04.456Z,7.85
2023-03-04T00:37:31.085Z,8.20
2023-03-04T00:39:57.866Z,8.32
2023-03-04T00:42:24.817Z,7.85
2023-03-04T00:44:52.129Z,6.75
2023-03-04T00:47:18.995Z,7.32
2023-03-04T00:49:45.550Z,8.20
2023-03-04T00:52:12.174Z,7.43
2023-03-04T00:54:38.737Z,7.90
2023-03-04T00:57:05.353Z,7.63
2023-03-04T00:59:32.108Z,7.65
2023-03-04T01:02:00.089Z,7.28
2023-03-04T01:04:26.866Z,6.85
2023-03-04T01:06:53.738Z,6.68
2023-03-04T01:09:20.398Z,7.28
2023-03-04T01:11:47.020Z,6.35
2023-03-04T01:14:13.672Z,5.72
2023-03-04T01:16:40.304Z,7.20
2023-03-04T01:19:07.033Z,6.93
2023-03-04T01:21:33.670Z,6.45
2023-03-04T01:24:00.522Z,6.38
2023-03-04T01:26:27.120Z,6.90
2023-03-04T01:28:53.765Z,6.65
2023-03-04T01:31:20.402Z,6.75
2023-03-04T01:33:46.973Z,6.10
2023-03-04T01:36:13.525Z,7.20
2023-03-04T01:38:40.305Z,7.07
2023-03-04T01:41:08.005Z,7.32
2023-03-04T01:43:36.634Z,7.13
2023-03-04T01:46:03.645Z,6.85
2023-03-04T01:48:38.987Z,6.68
2023-03-04T01:51:10.821Z,5.50
2023-03-04T01:53:37.614Z,8.40
2023-03-04T01:56:34.366Z,9.40
2023-03-04T01:59:20.063Z,7.90
2023-03-04T02:01:54.470Z,7.68
2023-03-04T02:04:26.137Z,8.15
2023-03-04T02:06:53.055Z,8.82
2023-03-04T02:09:21.340Z,6.93
2023-03-04T02:11:49.746Z,8.07
2023-03-04T02:14:19.433Z,7.45
2023-03-04T02:16:47.080Z,7.75
2023-03-04T02:19:51.279Z,7.95
2023-03-04T02:22:18.063Z,6.82
2023-03-04T02:25:01.881Z,7.60
2023-03-04T02:27:28.800Z,7.80
2023-03-04T02:29:55.461Z,8.00
2023-03-04T02:32:22.268Z,7.47
2023-03-04T02:34:50.810Z,7.88
2023-03-04T02:37:19.207Z,8.23
2023-03-04T02:39:48.480Z,8.57
2023-03-04T02:42:15.944Z,8.18
2023-03-04T02:44:46.461Z,8.98
2023-03-04T02:47:17.789Z,8.52
2023-03-04T02:49:44.868Z,7.75
2023-03-04T02:52:19.409Z,8.45
2023-03-04T02:54:46.303Z,7.82
2023-03-04T02:57:14.900Z,8.50
2023-03-04T02:59:44.462Z,8.52
2023-03-04T03:02:16.408Z,8.52
2023-03-04T03:04:43.046Z,8.52
2023-03-04T03:07:13.707Z,8.30
2023-03-04T03:09:41.128Z,8.73
2023-03-04T03:12:07.837Z,8.32
2023-03-04T03:14:34.556Z,8.50
2023-03-04T03:17:03.475Z,8.65
2023-03-04T03:19:31.507Z,8.02
2023-03-04T03:22:00.540Z,7.63
2023-03-04T03:24:27.226Z,8.10
2023-03-04T03:26:53.851Z,7.88
2023-03-04T03:29:20.472Z,7.93
2023-03-04T03:31:47.049Z,8.55
2023-03-04T03:34:13.793Z,9.60
2023-03-04T03:36:41.721Z,8.85
2023-03-04T03:39:08.341Z,8.75
2023-03-04T03:41:34.946Z,8.18
2023-03-04T03:44:01.907Z,8.40
2023-03-04T03:46:29.845Z,8.05
2023-03-04T03:48:56.502Z,8.18
2023-03-04T03:51:23.171Z,7.82
2023-03-04T03:53:49.793Z,8.20
2023-03-04T03:56:16.390Z,8.63
2023-03-04T03:58:42.973Z,8.50
2023-03-04T04:01:09.661Z,8.18
2023-03-04T04:03:36.629Z,7.07
2023-03-04T04:06:03.409Z,7.95
2023-03-04T04:08:30.026Z,7.57
2023-03-04T04:10:56.606Z,8.80
2023-03-04T04:13:23.303Z,9.45
2023-03-04T04:15:54.304Z,8.50
2023-03-04T04:18:20.896Z,7.18
2023-03-04T04:20:47.544Z,8.73
2023-03-04T04:23:14.075Z,8.48
2023-03-04T04:25:43.600Z,8.52
2023-03-04T04:28:10.358Z,8.23
2023-03-04T04:30:37.057Z,9.25
2023-03-04T04:33:04.799Z,9.00
2023-03-04T04:35:36.564Z,8.52
2023-03-04T04:38:03.280Z,8.50
2023-03-04T04:40:29.895Z,7.07
2023-03-04T04:42:57.054Z,8.43
2023-03-04T04:45:27.424Z,8.20
2023-03-04T04:47:57.310Z,8.88
2023-03-04T04:50:25.128Z,8.95
2023-03-04T04:52:51.773Z,8.68
2023-03-04T04:55:18.493Z,8.90
2023-03-04T04:57:45.052Z,9.20
2023-03-04T05:00:12.542Z,8.30
2023-03-04T05:02:39.607Z,7.78
2023-03-04T05:05:07.446Z,8.27
2023-03-04T05:07:34.301Z,8.20
2023-03-04T05:10:01.064Z,8.45
2023-03-04T05:12:27.814Z,9.05
2023-03-04T05:14:54.408Z,8.43
2023-03-04T05:17:20.978Z,8.05
2023-03-04T05:19:47.575Z,9.40
2023-03-04T05:22:14.080Z,9.07
2023-03-04T05:24:40.636Z,9.65
2023-03-04T05:27:07.148Z,8.95
2023-03-04T05:29:33.782Z,8.43
2023-03-04T05:32:00.343Z,8.20
2023-03-04T05:34:26.863Z,8.07
2023-03-04T05:36:53.417Z,8.15
2023-03-04T05:39:20.115Z,9.18
2023-03-04T05:41:46.674Z,8.05
2023-03-04T05:44:13.324Z,8.25
2023-03-04T05:46:40.002Z,8.65
2023-03-04T05:49:06.636Z,8.05
2023-03-04T05:51:33.192Z,8.45
2023-03-04T05:53:59.729Z,9.13
2023-03-04T05:56:26.315Z,8.02
2023-03-04T05:58:52.886Z,6.93
2023-03-04T06:01:19.442Z,8.27
2023-03-04T06:03:48.544Z,8.02
2023-03-04T06:06:15.401Z,7.65
2023-03-04T06:08:42.015Z,9.02
2023-03-04T06:11:08.799Z,8.43
2023-03-04T06:13:36.579Z,7.75
2023-03-04T06:16:03.379Z,8.07
2023-03-04T06:18:30.105Z,8.48
2023-03-04T06:21:01.481Z,8.02
2023-03-04T06:23:28.990Z,8.05
2023-03-04T06:25:57.913Z,8.73
2023-03-04T06:28:24.965Z,8.10
2023-03-04T06:30:53.092Z,8.52
2023-03-04T06:33:19.900Z,8.35
2023-03-04T06:35:46.551Z,9.45
2023-03-04T06:38:13.294Z,8.57
2023-03-04T06:40:40.152Z,8.73
2023-03-04T06:43:06.880Z,9.73
2023-03-04T06:45:33.372Z,9.07
2023-03-04T06:47:59.883Z,9.02
2023-03-04T06:50:26.582Z,8.52
2023-03-04T06:52:53.276Z,8.25
2023-03-04T06:55:29.191Z,10.18
2023-03-04T06:57:55.916Z,8.85
2023-03-04T07:00:24.133Z,9.30
2023-03-04T07:02:53.367Z,8.77
2023-03-04T07:05:21.311Z,9.13
2023-03-04T07:07:49.461Z,10.27
2023-03-04T07:10:19.767Z,8.23
2023-03-04T07:12:46.310Z,11.75
2023-03-04T07:15:13.171Z,12.05
2023-03-04T07:17:39.748Z,18.23
2023-03-04T07:20:06.832Z,14.98
2023-03-04T07:22:33.418Z,11.43
2023-03-04T07:24:59.951Z,11.57
2023-03-04T07:27:26.662Z,12.40
2023-03-04T07:29:53.217Z,10.70
2023-03-04T07:32:19.984Z,9.90
2023-03-04T07:34:46.666Z,9.25
2023-03-04T07:37:13.292Z,10.07
2023-03-04T07:39:39.894Z,8.55
2023-03-04T07:42:06.438Z,8.40
2023-03-04T07:44:39.366Z,8.02
2023-03-04T07:47:05.995Z,9.77
2023-03-04T07:49:36.795Z,9.40
2023-03-04T07:52:05.134Z,9.45
2023-03-04T07:54:32.422Z,10.20
2023-03-04T07:56:59.028Z,9.95
2023-03-04T08:02:35.867Z,8.00
2023-03-04T08:05:10.380Z,6.22
2023-03-04T08:07:37.136Z,6.50
2023-03-04T08:10:04.626Z,5.32
2023-03-04T08:12:31.252Z,7.28
2023-03-04T08:14:57.818Z,8.05
2023-03-04T08:17:24.498Z,7.57
2023-03-04T08:19:51.221Z,6.75
2023-03-04T08:22:17.905Z,5.55
2023-03-04T08:24:44.442Z,6.35
2023-03-04T08:27:11.073Z,5.35
2023-03-04T08:29:37.779Z,6.38
2023-03-04T08:32:04.661Z,5.68
2023-03-04T08:34:31.530Z,5.78
2023-03-04T08:36:58.185Z,6.50
2023-03-04T08:39:24.742Z,6.45
2023-03-04T08:41:51.361Z,5.20
2023-03-04T08:44:18.286Z,4.97
2023-03-04T08:46:44.895Z,5.97
2023-03-04T08:49:13.085Z,5.32
2023-03-04T08:51:40.040Z,5.82
2023-03-04T08:54:07.077Z,5.40
2023-03-04T08:56:33.645Z,4.68
2023-03-04T08:59:00.168Z,4.93
2023-03-04T09:01:27.168Z,4.78
2023-03-04T09:03:53.798Z,5.45
2023-03-04T09:06:20.477Z,5.22
2023-03-04T09:08:47.054Z,5.82
2023-03-04T09:11:13.846Z,5.93
2023-03-04T09:13:40.535Z,5.97
2023-03-04T09:16:14.947Z,6.15
2023-03-04T09:18:42.167Z,6.28
2023-03-04T09:21:09.530Z,5.97
2023-03-04T09:23:37.417Z,6.30
2023-03-04T09:26:27.196Z,6.65
2023-03-04T09:29:02.534Z,7.18
2023-03-04T09:31:29.817Z,5.50
2023-03-04T09:33:58.674Z,7.05
2023-03-04T09:36:26.616Z,5.45
2023-03-04T09:38:53.221Z,5.65
2023-03-04T09:41:26.864Z,6.20
2023-03-04T09:43:55.247Z,6.28
2023-03-04T09:46:33.935Z,8.25
2023-03-04T09:49:00.787Z,5.18
2023-03-04T09:51:54.421Z,6.53
2023-03-04T09:54:32.547Z,5.65
2023-03-04T09:57:34.621Z,6.00
2023-03-04T10:00:20.088Z,6.07
2023-03-04T10:03:05.082Z,6.20
2023-03-04T10:05:34.329Z,5.85
2023-03-04T10:08:16.948Z,6.00
2023-03-04T10:10:45.091Z,7.13
2023-03-04T10:13:18.364Z,5.75
2023-03-04T10:15:51.237Z,6.47
2023-03-04T10:18:27.681Z,5.30
2023-03-04T10:21:00.587Z,6.28
2023-03-04T10:23:29.847Z,6.38
2023-03-04T10:25:57.848Z,6.03
2023-03-04T10:28:30.423Z,5.70
2023-03-04T10:31:09.431Z,5.40
2023-03-04T10:33:38.902Z,5.75
2023-03-04T10:36:16.771Z,6.50
2023-03-04T10:38:43.596Z,5.53
2023-03-04T10:41:18.361Z,5.72
2023-03-04T10:43:50.858Z,6.38
2023-03-04T10:46:17.651Z,6.68
2023-03-04T10:48:44.952Z,5.82
2023-03-04T10:51:22.416Z,6.50
2023-03-04T10:53:56.001Z,6.88
2023-03-04T10:56:32.822Z,5.90
2023-03-04T10:59:27.999Z,6.32
2023-03-04T11:01:54.900Z,5.47
2023-03-04T11:04:27.467Z,6.85
2023-03-04T11:06:54.406Z,6.60
2023-03-04T11:09:27.840Z,6.57
2023-03-04T11:12:02.089Z,6.00
2023-03-04T11:14:37.240Z,7.38
2023-03-04T11:17:19.057Z,7.03
2023-03-04T11:19:51.942Z,6.05
2023-03-04T11:22:33.834Z,6.63
2023-03-04T11:25:18.188Z,6.35
2023-03-04T11:27:57.774Z,6.50
2023-03-04T11:30:48.111Z,7.10
2023-03-04T11:33:24.023Z,5.95
2023-03-04T11:36:31.640Z,6.88
2023-03-04T11:38:59.622Z,6.38
2023-03-04T11:41:48.715Z,6.82
2023-03-04T11:44:21.142Z,6.28
2023-03-04T11:47:39.347Z,8.93
2023-03-04T11:50:50.847Z,6.63
2023-03-04T18:42:37.593Z,5.43
2023-03-04T18:45:43.536Z,5.63
2023-03-04T18:48:10.221Z,4.55
2023-03-04T18:50:36.908Z,5.18
2023-03-04T18:53:03.942Z,4.70
2023-03-04T18:55:31.816Z,5.00
2023-03-04T18:58:01.316Z,5.20
2023-03-04T19:00:29.039Z,4.50
2023-03-04T19:03:08.467Z,5.30
2023-03-04T19:05:36.026Z,4.38
2023-03-04T19:08:02.817Z,4.57
2023-03-04T19:10:29.553Z,3.65
2023-03-04T19:12:59.774Z,4.25
2023-03-04T19:15:29.612Z,3.30
2023-03-04T19:17:56.328Z,4.55
2023-03-04T19:20:23.171Z,4.93
2023-03-04T19:22:50.988Z,3.83
2023-03-04T19:25:17.869Z,3.17
2023-03-04T19:27:44.596Z,4.18
2023-03-04T19:30:11.778Z,4.55
2023-03-04T19:32:38.510Z,4.20
2023-03-04T19:35:05.645Z,4.97
2023-03-04T19:37:32.416Z,4.32
2023-03-04T19:39:59.092Z,5.50
2023-03-04T19:42:25.695Z,4.82
2023-03-04T19:44:52.265Z,5.15
2023-03-04T19:47:18.932Z,5.05
2023-03-04T19:49:45.689Z,5.45
2023-03-04T19:52:12.413Z,5.75
2023-03-04T19:54:39.429Z,5.75
2023-03-04T19:57:06.086Z,6.22
2023-03-04T19:59:37.707Z,6.45
2023-03-04T20:02:04.497Z,6.97
2023-03-04T20:04:31.566Z,6.05
2023-03-04T20:06:58.384Z,5.35
2023-03-04T20:09:25.068Z,6.15
2023-03-04T20:11:58.408Z,6.93
2023-03-04T20:14:31.612Z,6.15
2023-03-04T20:17:01.106Z,5.85
2023-03-04T20:19:31.865Z,5.82
2023-03-04T20:21:58.843Z,5.93
2023-03-04T20:24:26.723Z,4.18
2023-03-04T20:26:54.086Z,25.52
2023-03-04T20:29:20.961Z,10.85
2023-03-04T20:31:48.248Z,9.48
2023-03-04T20:34:20.093Z,8.73
2023-03-04T20:36:49.090Z,13.00
2023-03-04T20:39:28.111Z,15.80
2023-03-04T20:41:58.029Z,8.60
2023-03-04T20:44:25.017Z,6.60
2023-03-04T20:46:51.787Z,7.60
2023-03-04T20:49:24.393Z,6.45
2023-03-04T20:51:58.083Z,6.25
2023-03-04T20:54:24.848Z,5.70
2023-03-04T20:56:51.469Z,6.55
2023-03-04T20:59:18.718Z,6.55
2023-03-04T21:01:48.079Z,6.28
2023-03-04T21:04:15.928Z,5.95
2023-03-04T21:06:43.735Z,5.38
2023-03-04T21:09:14.521Z,5.32
2023-03-04T21:11:42.334Z,6.30
2023-03-04T21:14:24.331Z,6.18
2023-03-04T21:16:53.374Z,5.32
2023-03-04T21:19:23.120Z,5.47
2023-03-04T21:21:51.807Z,4.57
2023-03-04T21:24:21.260Z,5.07
2023-03-04T21:26:48.639Z,6.07
2023-03-04T21:29:17.146Z,4.28
2023-03-04T21:31:46.402Z,4.95
2023-03-04T21:34:17.961Z,5.95
2023-03-04T21:36:44.714Z,5.40
2023-03-04T21:39:23.661Z,5.32
2023-03-04T21:41:50.765Z,7.07
2023-03-04T21:44:28.437Z,7.07
2023-03-04T21:47:00.728Z,6.47
2023-03-04T21:49:27.814Z,7.22
2023-03-04T21:51:54.787Z,6.30
2023-03-04T21:54:21.619Z,7.03
2023-03-04T21:56:49.471Z,5.95
2023-03-04T21:59:17.553Z,6.60
2023-03-04T22:01:45.139Z,7.13
2023-03-04T22:04:12.384Z,6.97
2023-03-04T22:06:40.812Z,6.88
2023-03-04T22:09:07.964Z,6.78
2023-03-04T22:11:34.830Z,8.05
2023-03-04T22:14:02.982Z,7.35
2023-03-04T22:16:31.756Z,7.45
2023-03-04T22:18:59.224Z,7.68
2023-03-04T22:21:25.889Z,7.60
2023-03-04T22:23:52.541Z,7.32
2023-03-04T22:26:26.896Z,8.50
2023-03-04T22:28:53.495Z,6.50
2023-03-04T22:31:34.972Z,6.70
2023-03-04T22:34:14.028Z,5.45
2023-03-04T22:36:43.955Z,6.22
2023-03-04T22:39:13.803Z,6.53
2023-03-04T22:41:40.637Z,7.72
2023-03-04T22:44:07.722Z,6.28
2023-03-04T22:46:38.094Z,7.00
2023-03-04T22:49:09.647Z,6.70
2023-03-04T22:51:37.230Z,6.45
2023-03-04T22:54:04.207Z,6.35
2023-03-04T22:56:30.921Z,5.47
2023-03-04T22:58:57.512Z,6.50
2023-03-04T23:01:24.259Z,7.32
2023-03-04T23:03:51.415Z,7.30
2023-03-04T23:06:25.195Z,6.45
2023-03-04T23:08:52.447Z,7.05
2023-03-04T23:11:22.125Z,7.13
2023-03-04T23:13:50.140Z,6.65
2023-03-04T23:16:17.853Z,5.82
2023-03-04T23:18:47.240Z,6.30
2023-03-04T23:21:22.086Z,6.82
2023-03-04T23:23:49.023Z,6.60
2023-03-04T23:26:21.251Z,6.75
2023-03-04T23:28:48.213Z,6.97
2023-03-04T23:31:15.477Z,6.38
2023-03-04T23:33:43.181Z,6.20
2023-03-04T23:36:15.733Z,6.53
2023-03-04T23:38:47.750Z,6.95
2023-03-04T23:41:19.950Z,5.70
2023-03-04T23:43:47.139Z,6.93
2023-03-04T23:46:14.274Z,7.03
2023-03-04T23:48:43.669Z,7.32
2023-03-04T23:51:10.389Z,7.45
2023-03-04T23:53:39.055Z,6.32
2023-03-04T23:56:11.120Z,5.78
2023-03-04T23:58:38.021Z,6.70
